createdAt,value
2018-12-06T00:00:13.081Z,9.53
2018-12-06T00:02:41.493Z,12.50
2018-12-06T00:05:09.828Z,13.47
2018-12-06T00:07:38.172Z,9.33
2018-12-06T00:10:06.603Z,12.33
2018-12-06T00:12:34.887Z,14.27
2018-12-06T00:15:14.242Z,12.33
2018-12-06T00:17:42.603Z,12.70
2018-12-06T00:20:10.858Z,11.23
2018-12-06T00:22:39.015Z,13.00
2018-12-06T00:25:07.316Z,13.63
2018-12-06T00:27:35.494Z,12.93
2018-12-06T00:30:14.981Z,10.63
2018-12-06T00:32:43.210Z,11.57
2018-12-06T00:35:11.455Z,11.70
2018-12-06T00:37:43.046Z,13.53
2018-12-06T00:40:11.494Z,12.73
2018-12-06T00:42:39.621Z,13.97
2018-12-06T00:45:08.025Z,12.83
2018-12-06T00:47:36.189Z,15.47
2018-12-06T00:50:04.526Z,14.23
2018-12-06T00:52:32.707Z,12.13
2018-12-06T00:55:00.876Z,13.33
2018-12-06T00:57:29.237Z,12.20
2018-12-06T00:59:57.388Z,13.73
2018-12-06T01:02:25.770Z,12.37
2018-12-06T01:04:53.922Z,13.50
2018-12-06T01:07:22.142Z,15.20
2018-12-06T01:09:50.531Z,11.27
2018-12-06T01:12:18.852Z,12.30
2018-12-06T01:14:47.170Z,10.83
2018-12-06T01:17:15.377Z,12.57
2018-12-06T01:19:43.524Z,10.07
2018-12-06T01:22:12.050Z,12.20
2018-12-06T01:24:40.409Z,9.33
2018-12-06T01:27:08.586Z,14.70
2018-12-06T01:29:36.868Z,9.73
2018-12-06T01:32:05.230Z,11.27
2018-12-06T01:34:33.468Z,12.47
2018-12-06T01:37:01.630Z,12.27
2018-12-06T01:39:29.835Z,15.27
2018-12-06T01:41:58.012Z,9.53
2018-12-06T01:44:26.264Z,8.90
2018-12-06T01:46:54.618Z,12.77
2018-12-06T01:49:22.869Z,9.20
2018-12-06T01:51:51.033Z,12.53
2018-12-06T01:54:19.231Z,13.23
2018-12-06T01:56:47.473Z,12.80
2018-12-06T01:59:15.641Z,10.23
2018-12-06T02:01:44.276Z,12.27
2018-12-06T02:04:12.452Z,14.03
2018-12-06T02:06:40.614Z,11.50
2018-12-06T02:09:10.185Z,13.00
2018-12-06T02:11:39.764Z,11.03
2018-12-06T02:14:08.043Z,13.77
2018-12-06T02:16:36.512Z,14.13
2018-12-06T02:19:04.836Z,10.13
2018-12-06T02:22:04.553Z,11.73
2018-12-06T02:24:32.848Z,14.93
2018-12-06T02:27:01.012Z,12.17
2018-12-06T02:29:33.459Z,12.63
2018-12-06T02:32:01.659Z,15.83
2018-12-06T02:34:29.874Z,11.50
2018-12-06T02:37:01.709Z,16.77
2018-12-06T02:39:29.903Z,14.90
2018-12-06T02:41:58.070Z,11.07
2018-12-06T02:44:26.222Z,13.53
2018-12-06T02:46:54.351Z,15.00
2018-12-06T02:49:22.536Z,13.90
2018-12-06T02:51:50.825Z,14.70
2018-12-06T02:54:19.049Z,12.53
2018-12-06T02:56:47.445Z,16.40
2018-12-06T02:59:15.622Z,13.57
2018-12-06T03:01:43.901Z,17.03
2018-12-06T03:04:13.015Z,15.47
2018-12-06T03:06:41.150Z,14.20
2018-12-06T03:09:09.436Z,17.03
2018-12-06T03:11:38.778Z,19.60
2018-12-06T03:14:07.018Z,13.03
2018-12-06T03:16:40.897Z,13.83
2018-12-06T03:19:09.293Z,16.40
2018-12-06T03:21:37.485Z,17.40
2018-12-06T03:24:05.710Z,16.50
2018-12-06T03:26:34.101Z,19.20
2018-12-06T03:29:02.703Z,17.43
2018-12-06T03:31:30.942Z,14.37
2018-12-06T03:33:59.207Z,15.47
2018-12-06T03:36:27.625Z,13.23
2018-12-06T03:38:55.834Z,17.67
2018-12-06T03:41:24.079Z,19.53
2018-12-06T03:43:52.278Z,19.13
2018-12-06T03:46:20.662Z,16.37
2018-12-06T03:48:48.893Z,21.00
2018-12-06T03:51:17.123Z,19.80
2018-12-06T03:53:45.304Z,16.80
2018-12-06T03:56:17.374Z,19.90
2018-12-06T03:58:45.546Z,22.73
2018-12-06T04:01:13.687Z,18.70
2018-12-06T04:03:41.859Z,17.80
2018-12-06T04:06:10.117Z,22.60
2018-12-06T04:08:38.312Z,19.10
2018-12-06T04:11:06.612Z,17.07
2018-12-06T04:13:34.769Z,22.23
2018-12-06T04:16:02.944Z,19.87
2018-12-06T04:18:31.201Z,20.43
2018-12-06T04:20:59.442Z,22.57
2018-12-06T04:23:27.651Z,23.20
2018-12-06T04:25:55.862Z,25.23
2018-12-06T04:28:24.052Z,21.80
2018-12-06T04:30:52.242Z,23.20
2018-12-06T04:33:20.398Z,30.30
2018-12-06T04:35:48.583Z,20.37
2018-12-06T04:38:16.812Z,22.73
2018-12-06T04:40:44.970Z,20.40
2018-12-06T04:43:13.296Z,22.47
2018-12-06T04:45:41.511Z,23.83
2018-12-06T04:48:09.755Z,22.57
2018-12-06T04:50:37.940Z,24.83
2018-12-06T04:53:06.138Z,23.90
2018-12-06T04:55:35.619Z,24.37
2018-12-06T04:58:03.954Z,26.87
2018-12-06T05:00:32.317Z,27.63
2018-12-06T05:03:06.133Z,30.87
2018-12-06T05:05:34.359Z,30.13
2018-12-06T05:08:02.638Z,28.30
2018-12-06T05:10:30.914Z,26.47
2018-12-06T05:12:59.201Z,24.73
2018-12-06T05:15:27.500Z,27.03
2018-12-06T05:17:55.715Z,23.60
2018-12-06T05:20:24.048Z,26.17
2018-12-06T05:22:52.314Z,30.60
2018-12-06T05:25:20.458Z,26.27
2018-12-06T05:27:48.627Z,23.13
2018-12-06T05:30:16.826Z,30.17
2018-12-06T05:32:45.090Z,28.10
2018-12-06T05:35:13.324Z,29.83
2018-12-06T05:37:41.569Z,29.57
2018-12-06T05:40:09.826Z,33.30
2018-12-06T05:42:44.729Z,27.67
2018-12-06T05:45:13.007Z,32.83
2018-12-06T05:47:41.368Z,31.70
2018-12-06T05:50:09.669Z,28.67
2018-12-06T05:52:37.990Z,24.47
2018-12-06T05:55:06.399Z,27.20
2018-12-06T05:57:34.634Z,28.00
2018-12-06T06:00:02.974Z,28.40
2018-12-06T06:02:31.166Z,27.57
2018-12-06T06:04:59.465Z,24.70
2018-12-06T06:07:27.702Z,24.73
2018-12-06T06:09:55.968Z,27.83
2018-12-06T06:12:24.122Z,26.50
2018-12-06T06:14:52.325Z,24.90
2018-12-06T06:17:20.496Z,27.90
2018-12-06T06:19:48.792Z,26.93
2018-12-06T06:22:17.012Z,29.93
2018-12-06T06:24:45.465Z,32.40
2018-12-06T06:27:13.833Z,31.53
2018-12-06T06:29:42.147Z,30.90
2018-12-06T06:32:10.382Z,26.27
2018-12-06T06:34:38.583Z,30.70
2018-12-06T06:37:06.854Z,27.50
2018-12-06T06:39:35.180Z,31.70
2018-12-06T06:42:03.553Z,28.73
2018-12-06T06:44:31.818Z,27.17
2018-12-06T06:47:00.897Z,34.67
2018-12-06T06:49:29.215Z,33.57
2018-12-06T06:51:57.525Z,29.60
2018-12-06T06:54:25.767Z,32.80
2018-12-06T06:56:53.997Z,30.03
2018-12-06T06:59:26.000Z,31.90
2018-12-06T07:01:52.653Z,29.60
2018-12-06T07:07:13.306Z,32.80
2018-12-06T07:09:41.574Z,31.57
2018-12-06T07:12:09.859Z,28.73
2018-12-06T07:14:38.920Z,32.93
2018-12-06T07:17:07.113Z,28.80
2018-12-06T07:19:35.340Z,31.07
2018-12-06T07:22:04.087Z,32.83
2018-12-06T07:24:32.340Z,31.97
2018-12-06T07:27:00.670Z,35.20
2018-12-06T07:29:28.958Z,38.03
2018-12-06T07:31:57.333Z,29.97
2018-12-06T07:34:25.721Z,35.17
2018-12-06T07:36:54.010Z,34.63
2018-12-06T07:39:22.206Z,38.23
2018-12-06T07:41:50.454Z,38.73
2018-12-06T07:44:23.218Z,39.70
2018-12-06T07:46:55.940Z,33.90
2018-12-06T07:49:24.364Z,42.60
2018-12-06T07:51:52.622Z,37.87
2018-12-06T07:54:20.815Z,45.67
2018-12-06T07:56:49.027Z,39.73
2018-12-06T07:59:17.238Z,41.07
2018-12-06T08:01:45.445Z,49.87
2018-12-06T08:04:13.762Z,45.73
2018-12-06T08:06:44.249Z,45.57
2018-12-06T08:09:12.497Z,49.70
2018-12-06T08:11:40.785Z,52.57
2018-12-06T08:14:09.239Z,50.30
2018-12-06T08:16:37.446Z,57.27
2018-12-06T08:19:11.282Z,62.13
2018-12-06T08:21:39.582Z,57.87
2018-12-06T08:24:07.736Z,61.80
2018-12-06T08:26:36.524Z,65.47
2018-12-06T08:29:08.653Z,65.70
2018-12-06T08:31:36.860Z,63.93
2018-12-06T08:34:06.462Z,56.33
2018-12-06T08:36:34.935Z,65.43
2018-12-06T08:39:05.145Z,61.27
2018-12-06T08:41:33.759Z,67.60
2018-12-06T08:44:01.901Z,67.10
2018-12-06T08:46:30.248Z,71.77
2018-12-06T08:49:03.216Z,72.93
2018-12-06T08:51:31.854Z,64.27
2018-12-06T08:54:00.361Z,68.00
2018-12-06T08:56:28.649Z,59.97
2018-12-06T08:58:56.887Z,52.73
2018-12-06T09:01:25.162Z,52.97
2018-12-06T09:03:53.458Z,57.17
2018-12-06T09:06:22.440Z,61.23
2018-12-06T09:08:51.131Z,63.07
2018-12-06T09:11:19.725Z,76.33
2018-12-06T09:13:52.384Z,74.63
2018-12-06T09:16:20.875Z,83.57
2018-12-06T09:18:53.263Z,73.67
2018-12-06T09:21:30.721Z,78.27
2018-12-06T09:23:58.922Z,79.30
2018-12-06T09:26:32.732Z,83.50
2018-12-06T09:29:02.374Z,75.63
2018-12-06T09:31:31.352Z,73.13
2018-12-06T09:34:06.325Z,86.97
2018-12-06T09:36:37.561Z,73.03
2018-12-06T09:39:08.738Z,77.70
2018-12-06T09:41:37.065Z,84.77
2018-12-06T09:44:05.413Z,101.13
2018-12-06T09:46:38.158Z,84.70
2018-12-06T09:49:08.361Z,88.43
2018-12-06T09:51:36.632Z,93.87
2018-12-06T09:54:04.881Z,87.57
2018-12-06T09:56:33.282Z,80.70
2018-12-06T09:59:01.466Z,94.10
2018-12-06T10:01:29.723Z,97.57
2018-12-06T10:04:04.431Z,85.00
2018-12-06T10:06:32.611Z,95.57
2018-12-06T10:09:06.955Z,92.33
2018-12-06T10:11:35.172Z,105.30
2018-12-06T10:14:07.970Z,111.97
2018-12-06T10:16:36.183Z,106.07
2018-12-06T10:19:04.435Z,95.20
2018-12-06T10:21:32.669Z,105.00
2018-12-06T10:24:01.772Z,102.10
2018-12-06T10:26:34.432Z,102.63
2018-12-06T10:29:02.579Z,112.30
2018-12-06T10:31:31.018Z,100.17
2018-12-06T10:33:59.239Z,110.10
2018-12-06T10:36:29.223Z,108.93
2018-12-06T10:38:57.380Z,115.53
2018-12-06T10:41:26.540Z,119.10
2018-12-06T10:43:58.692Z,107.67
2018-12-06T10:46:34.030Z,134.70
2018-12-06T10:49:02.298Z,114.90
2018-12-06T10:51:40.643Z,128.10
2018-12-06T10:54:11.157Z,148.53
2018-12-06T10:56:43.122Z,136.53
2018-12-06T10:59:11.360Z,160.60
2018-12-06T11:01:45.671Z,150.13
2018-12-06T11:04:13.842Z,150.63
2018-12-06T11:06:42.473Z,149.33
2018-12-06T11:09:10.725Z,149.00
2018-12-06T11:11:38.980Z,148.57
2018-12-06T11:14:07.202Z,134.40
2018-12-06T11:16:35.571Z,127.30
2018-12-06T11:19:03.845Z,132.97
2018-12-06T11:21:32.667Z,138.37
2018-12-06T11:24:01.776Z,139.70
2018-12-06T11:26:30.936Z,150.00
2018-12-06T11:28:59.369Z,152.20
2018-12-06T11:31:29.165Z,138.17
2018-12-06T11:33:58.676Z,137.47
2018-12-06T11:36:26.907Z,136.47
2018-12-06T11:38:55.071Z,132.60
2018-12-06T11:41:23.282Z,147.53
2018-12-06T11:43:51.545Z,117.53
2018-12-06T11:46:19.722Z,151.47
2018-12-06T11:48:47.915Z,144.23
2018-12-06T11:51:16.856Z,149.47
2018-12-06T11:53:57.245Z,150.10
2018-12-06T11:56:25.436Z,132.17
2018-12-06T11:58:54.045Z,143.97
2018-12-06T12:01:22.516Z,136.70
2018-12-06T12:03:50.773Z,142.57
2018-12-06T12:06:19.032Z,129.43
2018-12-06T12:08:55.692Z,148.73
2018-12-06T12:11:23.880Z,149.40
2018-12-06T12:13:56.084Z,143.20
2018-12-06T12:16:24.293Z,154.13
2018-12-06T12:18:52.718Z,166.97
2018-12-06T12:21:20.950Z,156.87
2018-12-06T12:23:49.144Z,169.20
2018-12-06T12:26:21.575Z,166.93
2018-12-06T12:28:49.809Z,153.87
2018-12-06T12:31:18.840Z,165.43
2018-12-06T12:33:47.741Z,155.93
2018-12-06T12:36:15.926Z,180.40
2018-12-06T12:38:44.102Z,163.93
2018-12-06T12:41:16.154Z,155.17
2018-12-06T12:43:45.103Z,155.67
2018-12-06T12:46:14.245Z,146.23
2018-12-06T12:48:42.442Z,150.33
2018-12-06T12:51:10.598Z,125.73
2018-12-06T12:53:38.793Z,123.03
2018-12-06T12:56:07.041Z,127.43
2018-12-06T12:58:35.213Z,136.50
2018-12-06T13:01:07.716Z,135.60
2018-12-06T13:03:37.939Z,131.47
2018-12-06T13:06:06.274Z,132.13
2018-12-06T13:08:34.762Z,147.90
2018-12-06T13:11:03.041Z,141.43
2018-12-06T13:13:31.349Z,147.17
2018-12-06T13:15:59.650Z,136.80
2018-12-06T13:18:27.849Z,140.77
2018-12-06T13:20:56.466Z,125.27
2018-12-06T13:23:28.050Z,148.87
2018-12-06T13:25:56.291Z,150.97
2018-12-06T13:28:24.524Z,149.60
2018-12-06T13:30:52.766Z,178.00
2018-12-06T13:33:21.136Z,170.10
2018-12-06T13:35:49.515Z,168.00
2018-12-06T13:38:17.764Z,161.47
2018-12-06T13:40:46.183Z,170.37
2018-12-06T13:43:14.505Z,178.37
2018-12-06T13:45:42.846Z,170.03
2018-12-06T13:48:11.488Z,163.53
2018-12-06T13:50:40.010Z,172.30
2018-12-06T13:53:08.281Z,169.53
2018-12-06T13:55:36.466Z,162.70
2018-12-06T13:58:06.493Z,155.27
2018-12-06T14:00:34.929Z,165.80
2018-12-06T14:03:05.184Z,163.00
2018-12-06T14:05:33.505Z,173.03
2018-12-06T14:08:02.020Z,166.07
2018-12-06T14:10:30.275Z,152.50
2018-12-06T14:12:58.785Z,161.97
2018-12-06T14:15:27.134Z,151.50
2018-12-06T14:18:11.356Z,154.53
2018-12-06T14:20:39.642Z,156.53
2018-12-06T14:23:07.835Z,160.23
2018-12-06T14:25:36.009Z,156.10
2018-12-06T14:28:04.281Z,171.97
2018-12-06T14:30:32.478Z,161.43
2018-12-06T14:33:00.663Z,162.77
2018-12-06T14:35:28.825Z,164.87
2018-12-06T14:37:56.980Z,148.83
2018-12-06T14:40:26.285Z,169.63
2018-12-06T14:42:54.617Z,162.37
2018-12-06T14:45:23.020Z,171.27
2018-12-06T14:47:51.250Z,180.93
2018-12-06T14:50:20.437Z,189.33
2018-12-06T14:52:48.612Z,175.83
2018-12-06T14:55:16.842Z,197.87
2018-12-06T14:57:45.016Z,226.87
2018-12-06T15:00:13.321Z,191.30
2018-12-06T15:02:41.501Z,190.90
2018-12-06T15:05:10.464Z,210.83
2018-12-06T15:07:38.718Z,185.27
2018-12-06T15:10:08.100Z,182.27
2018-12-06T15:12:36.293Z,193.90
2018-12-06T15:15:10.987Z,208.03
2018-12-06T15:17:43.900Z,194.63
2018-12-06T15:20:13.577Z,207.17
2018-12-06T15:22:43.298Z,191.60
2018-12-06T15:25:18.952Z,183.40
2018-12-06T15:27:49.850Z,190.70
2018-12-06T15:30:19.815Z,182.57
2018-12-06T15:32:48.788Z,176.67
2018-12-06T15:35:22.716Z,175.40
2018-12-06T15:37:51.800Z,184.17
2018-12-06T15:40:23.646Z,177.23
2018-12-06T15:42:54.164Z,200.03
2018-12-06T15:45:24.031Z,202.03
2018-12-06T15:47:53.505Z,182.90
2018-12-06T15:50:24.363Z,200.10
2018-12-06T15:52:54.506Z,177.37
2018-12-06T15:55:23.354Z,183.90
2018-12-06T15:57:51.668Z,177.17
2018-12-06T16:00:20.020Z,197.80
2018-12-06T16:02:48.274Z,175.87
2018-12-06T16:05:16.504Z,172.10
2018-12-06T16:07:44.730Z,180.93
2018-12-06T16:10:13.021Z,171.07
2018-12-06T16:12:41.216Z,149.03
2018-12-06T16:15:09.592Z,158.03
2018-12-06T16:17:37.835Z,141.53
2018-12-06T16:20:08.893Z,148.53
2018-12-06T16:22:37.149Z,136.77
2018-12-06T16:25:07.333Z,143.00
2018-12-06T16:27:38.228Z,133.97
2018-12-06T16:30:10.478Z,128.40
2018-12-06T16:32:41.409Z,142.13
2018-12-06T16:35:12.464Z,128.20
2018-12-06T16:37:43.419Z,139.70
2018-12-06T16:40:14.693Z,138.43
2018-12-06T16:42:44.654Z,133.53
2018-12-06T16:45:15.559Z,128.03
2018-12-06T16:47:44.025Z,130.57
2018-12-06T16:50:12.349Z,125.77
2018-12-06T16:52:40.568Z,120.13
2018-12-06T16:55:09.125Z,104.50
2018-12-06T16:57:37.372Z,101.53
2018-12-06T17:00:09.034Z,98.83
2018-12-06T17:02:37.287Z,89.73
2018-12-06T17:05:05.708Z,97.37
2018-12-06T17:07:34.586Z,98.07
2018-12-06T17:10:02.868Z,121.23
2018-12-06T17:12:31.152Z,112.40
2018-12-06T17:14:59.543Z,113.13
2018-12-06T17:17:28.274Z,127.50
2018-12-06T17:19:56.513Z,115.67
2018-12-06T17:22:24.803Z,100.70
2018-12-06T17:24:55.301Z,90.33
2018-12-06T17:27:23.560Z,103.20
2018-12-06T17:29:52.001Z,90.33
2018-12-06T17:32:20.477Z,94.57
2018-12-06T17:34:48.688Z,93.40
2018-12-06T17:37:17.731Z,98.33
2018-12-06T17:39:46.093Z,84.80
2018-12-06T17:42:14.403Z,95.23
2018-12-06T17:44:52.312Z,86.00
2018-12-06T17:47:20.817Z,83.47
2018-12-06T17:49:49.633Z,79.13
2018-12-06T17:52:17.857Z,76.17
2018-12-06T17:54:46.163Z,74.33
2018-12-06T17:57:14.459Z,74.53
2018-12-06T17:59:42.728Z,82.43
2018-12-06T18:02:10.918Z,73.00
2018-12-06T18:04:39.200Z,69.17
2018-12-06T18:07:17.165Z,72.93
2018-12-06T18:09:45.359Z,76.23
2018-12-06T18:12:13.608Z,77.57
2018-12-06T18:14:41.954Z,77.40
2018-12-06T18:17:10.157Z,73.33
2018-12-06T18:19:38.350Z,71.50
2018-12-06T18:22:06.676Z,78.50
2018-12-06T18:24:34.882Z,84.03
2018-12-06T18:27:03.155Z,87.20
2018-12-06T18:29:32.064Z,77.43
2018-12-06T18:32:00.323Z,78.20
2018-12-06T18:34:28.515Z,92.00
2018-12-06T18:36:56.909Z,82.13
2018-12-06T18:39:25.136Z,79.37
2018-12-06T18:41:56.384Z,81.73
2018-12-06T18:44:25.235Z,80.13
2018-12-06T18:46:53.545Z,80.00
2018-12-06T18:49:21.859Z,84.50
2018-12-06T18:51:50.205Z,81.03
2018-12-06T18:54:18.378Z,85.73
2018-12-06T18:56:46.626Z,94.33
2018-12-06T18:59:15.026Z,87.43
2018-12-06T19:01:47.365Z,92.90
2018-12-06T19:04:15.776Z,82.90
2018-12-06T19:06:44.847Z,90.53
2018-12-06T19:09:13.273Z,80.33
2018-12-06T19:11:41.580Z,86.27
2018-12-06T19:14:09.874Z,79.77
2018-12-06T19:16:38.408Z,85.67
2018-12-06T19:19:07.553Z,85.40
2018-12-06T19:21:39.078Z,95.93
2018-12-06T19:24:07.623Z,95.73
2018-12-06T19:26:35.863Z,95.20
2018-12-06T19:29:04.193Z,88.83
2018-12-06T19:31:32.516Z,81.90
2018-12-06T19:34:00.730Z,88.87
2018-12-06T19:36:28.968Z,80.63
2018-12-06T19:38:57.174Z,80.97
2018-12-06T19:41:25.695Z,85.13
2018-12-06T19:46:49.327Z,89.07
2018-12-06T19:49:18.470Z,96.13
2018-12-06T19:51:47.208Z,79.73
2018-12-06T19:54:15.840Z,92.37
2018-12-06T19:56:44.101Z,90.10
2018-12-06T19:59:13.291Z,82.67
2018-12-06T20:01:41.465Z,76.70
2018-12-06T20:04:09.678Z,78.57
2018-12-06T20:06:38.058Z,72.47
2018-12-06T20:09:09.142Z,70.27
2018-12-06T20:11:37.393Z,71.40
2018-12-06T20:14:05.749Z,61.83
2018-12-06T20:16:33.935Z,64.37
2018-12-06T20:19:02.420Z,65.83
2018-12-06T20:21:30.702Z,63.53
2018-12-06T20:23:59.200Z,73.03
2018-12-06T20:26:29.070Z,65.97
2018-12-06T20:28:57.354Z,77.97
2018-12-06T20:31:25.798Z,72.93
2018-12-06T20:33:54.186Z,81.27
2018-12-06T20:36:22.915Z,76.40
2018-12-06T20:38:51.281Z,84.37
2018-12-06T20:41:19.547Z,80.03
2018-12-06T20:43:47.934Z,84.63
2018-12-06T20:46:17.573Z,93.33
2018-12-06T20:48:47.269Z,92.10
2018-12-06T20:51:16.755Z,87.00
2018-12-06T20:53:45.775Z,76.40
2018-12-06T20:56:16.479Z,76.60
2018-12-06T20:58:47.177Z,74.63
2018-12-06T21:01:17.570Z,83.37
2018-12-06T21:03:45.809Z,79.10
2018-12-06T21:06:14.023Z,79.90
2018-12-06T21:08:42.338Z,82.87
2018-12-06T21:11:10.913Z,77.93
2018-12-06T21:13:39.219Z,84.93
2018-12-06T21:16:07.636Z,79.07
2018-12-06T21:18:35.902Z,75.53
2018-12-06T21:21:04.288Z,87.03
2018-12-06T21:23:33.580Z,87.03
2018-12-06T21:26:01.832Z,79.83
2018-12-06T21:28:30.108Z,87.67
2018-12-06T21:30:58.601Z,90.33
2018-12-06T21:33:28.246Z,88.97
2018-12-06T21:35:56.652Z,95.63
2018-12-06T21:38:25.054Z,84.17
2018-12-06T21:40:53.462Z,88.67
2018-12-06T21:43:21.788Z,88.60
2018-12-06T21:45:50.528Z,105.90
2018-12-06T21:48:18.739Z,102.97
2018-12-06T21:50:47.110Z,106.07
2018-12-06T21:53:15.305Z,112.83
2018-12-06T21:55:43.624Z,98.97
2018-12-06T21:58:11.903Z,103.50
2018-12-06T22:00:40.143Z,99.50
2018-12-06T22:03:25.975Z,93.73
2018-12-06T22:05:54.510Z,88.07
2018-12-06T22:08:22.726Z,90.80
2018-12-06T22:10:50.893Z,98.07
2018-12-06T22:13:19.096Z,91.90
2018-12-06T22:15:47.308Z,99.20
2018-12-06T22:18:16.418Z,96.23
2018-12-06T22:20:45.170Z,113.10
2018-12-06T22:23:13.460Z,107.37
2018-12-06T22:25:41.731Z,94.70
2018-12-06T22:28:10.216Z,100.07
2018-12-06T22:30:38.459Z,111.90
2018-12-06T22:33:06.869Z,97.73
2018-12-06T22:35:37.412Z,98.87
2018-12-06T22:38:05.706Z,100.20
2018-12-06T22:40:34.094Z,107.20
2018-12-06T22:43:02.263Z,94.67
2018-12-06T22:46:01.513Z,88.23
2018-12-06T22:51:11.136Z,95.97
2018-12-06T22:53:39.385Z,95.03
2018-12-06T22:56:07.641Z,100.50
2018-12-06T22:58:35.900Z,92.97
2018-12-06T23:01:06.728Z,95.30
2018-12-06T23:03:35.009Z,106.80
2018-12-06T23:06:03.539Z,91.10
2018-12-06T23:08:31.865Z,96.33
2018-12-06T23:11:00.163Z,86.87
2018-12-06T23:13:28.621Z,88.40
2018-12-06T23:15:56.910Z,95.17
2018-12-06T23:18:25.163Z,96.40
2018-12-06T23:20:53.425Z,92.07
2018-12-06T23:23:21.816Z,83.27
2018-12-06T23:25:50.032Z,87.63
2018-12-06T23:28:18.210Z,85.73
2018-12-06T23:30:46.381Z,89.53
2018-12-06T23:33:14.690Z,90.93
2018-12-06T23:35:43.037Z,81.90
2018-12-06T23:38:11.247Z,87.00
2018-12-06T23:40:39.503Z,81.10
2018-12-06T23:43:07.840Z,82.97
2018-12-06T23:45:36.117Z,87.97
2018-12-06T23:48:04.361Z,77.83
2018-12-06T23:50:32.622Z,81.37
2018-12-06T23:53:00.938Z,81.40
2018-12-06T23:55:36.360Z,79.37
2018-12-06T23:58:04.587Z,86.37
